sensor_id;sensor_type;location;lat;lon;timestamp;temperature;humidity
16289;DHT22;26089;43.538;5.250;2023-05-07T00:00:48;15.50;99.90
16289;DHT22;26089;43.538;5.250;2023-05-07T00:03:16;15.40;99.90
16289;DHT22;26089;43.538;5.250;2023-05-07T00:05:46;15.40;99.90
16289;DHT22;26089;43.538;5.250;2023-05-07T00:08:13;15.30;99.90
16289;DHT22;26089;43.538;5.250;2023-05-07T00:10:41;15.30;99.90
16289;DHT22;26089;43.538;5.250;2023-05-07T00:13:08;15.20;99.90
16289;DHT22;26089;43.538;5.250;2023-05-07T00:15:35;15.20;99.90
16289;DHT22;26089;43.538;5.250;2023-05-07T00:18:02;15.20;99.90
16289;DHT22;26089;43.538;5.250;2023-05-07T00:20:29;15.20;99.90
16289;DHT22;26089;43.538;5.250;2023-05-07T00:22:57;15.10;99.90
16289;DHT22;26089;43.538;5.250;2023-05-07T00:25:24;15.10;99.90
16289;DHT22;26089;43.538;5.250;2023-05-07T00:27:51;15.10;99.90
16289;DHT22;26089;43.538;5.250;2023-05-07T00:30:18;15.10;99.90
16289;DHT22;26089;43.538;5.250;2023-05-07T00:32:45;15.00;99.90
16289;DHT22;26089;43.538;5.250;2023-05-07T00:35:14;15.10;99.90
16289;DHT22;26089;43.538;5.250;2023-05-07T00:37:41;15.10;99.90
16289;DHT22;26089;43.538;5.250;2023-05-07T00:40:10;15.10;99.90
16289;DHT22;26089;43.538;5.250;2023-05-07T00:42:37;15.10;99.90
16289;DHT22;26089;43.538;5.250;2023-05-07T00:45:05;14.90;99.90
16289;DHT22;26089;43.538;5.250;2023-05-07T00:47:33;14.90;99.90
16289;DHT22;26089;43.538;5.250;2023-05-07T00:50:00;14.90;99.90
16289;DHT22;26089;43.538;5.250;2023-05-07T00:52:27;15.00;99.90
16289;DHT22;26089;43.538;5.250;2023-05-07T00:54:55;14.90;99.90
16289;DHT22;26089;43.538;5.250;2023-05-07T00:57:24;14.90;99.90
16289;DHT22;26089;43.538;5.250;2023-05-07T00:59:52;14.90;99.90
16289;DHT22;26089;43.538;5.250;2023-05-07T01:02:19;14.90;99.90
16289;DHT22;26089;43.538;5.250;2023-05-07T01:04:46;14.90;99.90
16289;DHT22;26089;43.538;5.250;2023-05-07T01:07:13;14.90;99.90
16289;DHT22;26089;43.538;5.250;2023-05-07T01:09:40;14.90;99.90
16289;DHT22;26089;43.538;5.250;2023-05-07T01:12:07;14.80;99.90
16289;DHT22;26089;43.538;5.250;2023-05-07T01:14:36;14.80;99.90
16289;DHT22;26089;43.538;5.250;2023-05-07T01:17:03;14.70;99.90
16289;DHT22;26089;43.538;5.250;2023-05-07T01:19:31;14.60;99.90
16289;DHT22;26089;43.538;5.250;2023-05-07T01:22:02;14.60;99.90
16289;DHT22;26089;43.538;5.250;2023-05-07T01:24:32;14.60;99.90
16289;DHT22;26089;43.538;5.250;2023-05-07T01:26:59;14.60;99.90
16289;DHT22;26089;43.538;5.250;2023-05-07T01:29:27;14.60;99.90
16289;DHT22;26089;43.538;5.250;2023-05-07T01:31:55;14.60;99.90
16289;DHT22;26089;43.538;5.250;2023-05-07T01:34:25;14.60;99.90
16289;DHT22;26089;43.538;5.250;2023-05-07T01:36:54;14.50;99.90
16289;DHT22;26089;43.538;5.250;2023-05-07T01:39:24;14.60;99.90
16289;DHT22;26089;43.538;5.250;2023-05-07T01:41:53;14.50;99.90
16289;DHT22;26089;43.538;5.250;2023-05-07T01:44:21;14.60;99.90
16289;DHT22;26089;43.538;5.250;2023-05-07T01:46:49;14.60;99.90
16289;DHT22;26089;43.538;5.250;2023-05-07T01:49:17;14.60;99.90
16289;DHT22;26089;43.538;5.250;2023-05-07T01:51:44;14.60;99.90
16289;DHT22;26089;43.538;5.250;2023-05-07T01:54:11;14.70;99.90
16289;DHT22;26089;43.538;5.250;2023-05-07T01:56:38;14.70;99.90
16289;DHT22;26089;43.538;5.250;2023-05-07T01:59:06;14.80;99.90
16289;DHT22;26089;43.538;5.250;2023-05-07T02:01:33;14.80;99.90
16289;DHT22;26089;43.538;5.250;2023-05-07T02:04:00;14.90;99.90
16289;DHT22;26089;43.538;5.250;2023-05-07T02:06:27;14.90;99.90
16289;DHT22;26089;43.538;5.250;2023-05-07T02:08:54;14.80;99.90
16289;DHT22;26089;43.538;5.250;2023-05-07T02:11:21;14.70;99.90
16289;DHT22;26089;43.538;5.250;2023-05-07T02:13:48;14.70;99.90
16289;DHT22;26089;43.538;5.250;2023-05-07T02:16:16;14.80;99.90
16289;DHT22;26089;43.538;5.250;2023-05-07T02:18:44;14.80;99.90
16289;DHT22;26089;43.538;5.250;2023-05-07T02:21:11;14.80;99.90
16289;DHT22;26089;43.538;5.250;2023-05-07T02:23:38;14.80;99.90
16289;DHT22;26089;43.538;5.250;2023-05-07T02:26:05;14.80;99.90
16289;DHT22;26089;43.538;5.250;2023-05-07T02:28:32;14.90;99.90
16289;DHT22;26089;43.538;5.250;2023-05-07T02:31:02;15.00;99.90
16289;DHT22;26089;43.538;5.250;2023-05-07T02:33:30;15.00;99.90
16289;DHT22;26089;43.538;5.250;2023-05-07T02:36:05;15.00;99.90
16289;DHT22;26089;43.538;5.250;2023-05-07T02:38:32;15.10;99.90
16289;DHT22;26089;43.538;5.250;2023-05-07T02:40:59;15.10;99.90
16289;DHT22;26089;43.538;5.250;2023-05-07T02:43:26;15.80;99.90
16289;DHT22;26089;43.538;5.250;2023-05-07T02:46:00;15.10;99.90
16289;DHT22;26089;43.538;5.250;2023-05-07T02:48:29;15.00;99.90
16289;DHT22;26089;43.538;5.250;2023-05-07T02:50:56;15.00;99.90
16289;DHT22;26089;43.538;5.250;2023-05-07T02:53:24;15.00;99.90
16289;DHT22;26089;43.538;5.250;2023-05-07T02:55:52;14.90;99.90
16289;DHT22;26089;43.538;5.250;2023-05-07T02:58:19;14.80;99.90
16289;DHT22;26089;43.538;5.250;2023-05-07T03:00:46;14.80;99.90
16289;DHT22;26089;43.538;5.250;2023-05-07T03:03:13;14.80;99.90
16289;DHT22;26089;43.538;5.250;2023-05-07T03:05:42;14.90;99.90
16289;DHT22;26089;43.538;5.250;2023-05-07T03:08:09;15.00;99.90
16289;DHT22;26089;43.538;5.250;2023-05-07T03:10:37;15.00;99.90
16289;DHT22;26089;43.538;5.250;2023-05-07T03:13:05;15.00;99.90
16289;DHT22;26089;43.538;5.250;2023-05-07T03:15:32;14.90;99.90
16289;DHT22;26089;43.538;5.250;2023-05-07T03:17:59;14.90;99.90
16289;DHT22;26089;43.538;5.250;2023-05-07T03:20:26;14.90;99.90
16289;DHT22;26089;43.538;5.250;2023-05-07T03:22:54;14.90;99.90
16289;DHT22;26089;43.538;5.250;2023-05-07T03:25:21;14.90;99.90
16289;DHT22;26089;43.538;5.250;2023-05-07T03:27:48;14.90;99.90
16289;DHT22;26089;43.538;5.250;2023-05-07T03:30:15;14.90;99.90
16289;DHT22;26089;43.538;5.250;2023-05-07T03:32:43;14.90;99.90
16289;DHT22;26089;43.538;5.250;2023-05-07T03:35:10;14.80;99.90
16289;DHT22;26089;43.538;5.250;2023-05-07T03:37:37;14.80;99.90
16289;DHT22;26089;43.538;5.250;2023-05-07T03:40:07;14.80;99.90
16289;DHT22;26089;43.538;5.250;2023-05-07T03:42:35;14.80;99.90
16289;DHT22;26089;43.538;5.250;2023-05-07T03:45:03;14.80;99.90
16289;DHT22;26089;43.538;5.250;2023-05-07T03:47:30;14.80;99.90
16289;DHT22;26089;43.538;5.250;2023-05-07T03:49:57;14.80;99.90
16289;DHT22;26089;43.538;5.250;2023-05-07T03:52:25;14.90;99.90
16289;DHT22;26089;43.538;5.250;2023-05-07T03:54:52;15.00;99.90
16289;DHT22;26089;43.538;5.250;2023-05-07T03:57:20;15.00;99.90
16289;DHT22;26089;43.538;5.250;2023-05-07T03:59:47;14.90;99.90
16289;DHT22;26089;43.538;5.250;2023-05-07T04:02:16;15.00;99.90
16289;DHT22;26089;43.538;5.250;2023-05-07T04:04:42;15.00;99.90
16289;DHT22;26089;43.538;5.250;2023-05-07T04:07:09;15.00;99.90
16289;DHT22;26089;43.538;5.250;2023-05-07T04:09:36;15.00;99.90
16289;DHT22;26089;43.538;5.250;2023-05-07T04:12:04;15.00;99.90
16289;DHT22;26089;43.538;5.250;2023-05-07T04:14:32;15.00;99.90
16289;DHT22;26089;43.538;5.250;2023-05-07T04:16:59;15.00;99.90
16289;DHT22;26089;43.538;5.250;2023-05-07T04:19:26;15.00;99.90
16289;DHT22;26089;43.538;5.250;2023-05-07T04:21:53;14.80;99.90
16289;DHT22;26089;43.538;5.250;2023-05-07T04:24:20;14.70;99.90
16289;DHT22;26089;43.538;5.250;2023-05-07T04:26:47;14.60;99.90
16289;DHT22;26089;43.538;5.250;2023-05-07T04:29:14;14.40;99.90
16289;DHT22;26089;43.538;5.250;2023-05-07T04:31:43;14.40;99.90
16289;DHT22;26089;43.538;5.250;2023-05-07T04:34:10;14.30;99.90
16289;DHT22;26089;43.538;5.250;2023-05-07T04:36:38;14.30;99.90
16289;DHT22;26089;43.538;5.250;2023-05-07T04:39:05;14.30;99.90
16289;DHT22;26089;43.538;5.250;2023-05-07T04:41:33;14.30;99.90
16289;DHT22;26089;43.538;5.250;2023-05-07T04:44:01;14.20;99.90
16289;DHT22;26089;43.538;5.250;2023-05-07T04:46:29;14.20;99.90
16289;DHT22;26089;43.538;5.250;2023-05-07T04:48:57;14.20;99.90
16289;DHT22;26089;43.538;5.250;2023-05-07T04:51:24;14.30;99.90
16289;DHT22;26089;43.538;5.250;2023-05-07T04:53:51;14.30;99.90
16289;DHT22;26089;43.538;5.250;2023-05-07T04:56:18;14.30;99.90
16289;DHT22;26089;43.538;5.250;2023-05-07T04:58:45;14.30;99.90
16289;DHT22;26089;43.538;5.250;2023-05-07T05:01:12;14.40;99.90
16289;DHT22;26089;43.538;5.250;2023-05-07T05:03:39;14.50;99.90
16289;DHT22;26089;43.538;5.250;2023-05-07T05:06:08;14.60;99.90
16289;DHT22;26089;43.538;5.250;2023-05-07T05:08:35;14.60;99.90
16289;DHT22;26089;43.538;5.250;2023-05-07T05:11:02;14.60;99.90
16289;DHT22;26089;43.538;5.250;2023-05-07T05:13:29;14.60;99.90
16289;DHT22;26089;43.538;5.250;2023-05-07T05:15:56;14.60;99.90
16289;DHT22;26089;43.538;5.250;2023-05-07T05:18:23;14.60;99.90
16289;DHT22;26089;43.538;5.250;2023-05-07T05:20:51;14.70;99.90
16289;DHT22;26089;43.538;5.250;2023-05-07T05:23:19;14.60;99.90
16289;DHT22;26089;43.538;5.250;2023-05-07T05:25:46;14.70;99.90
16289;DHT22;26089;43.538;5.250;2023-05-07T05:28:13;14.60;99.90
16289;DHT22;26089;43.538;5.250;2023-05-07T05:30:40;14.60;99.90
16289;DHT22;26089;43.538;5.250;2023-05-07T05:33:07;14.60;99.90
16289;DHT22;26089;43.538;5.250;2023-05-07T05:35:34;14.70;99.90
16289;DHT22;26089;43.538;5.250;2023-05-07T05:38:02;14.70;99.90
16289;DHT22;26089;43.538;5.250;2023-05-07T05:40:31;14.80;99.90
16289;DHT22;26089;43.538;5.250;2023-05-07T05:42:58;14.80;99.90
16289;DHT22;26089;43.538;5.250;2023-05-07T05:45:25;14.80;99.90
16289;DHT22;26089;43.538;5.250;2023-05-07T05:47:53;14.90;99.90
16289;DHT22;26089;43.538;5.250;2023-05-07T05:50:20;14.80;99.90
16289;DHT22;26089;43.538;5.250;2023-05-07T05:52:46;14.90;99.90
16289;DHT22;26089;43.538;5.250;2023-05-07T05:55:14;14.80;99.90
16289;DHT22;26089;43.538;5.250;2023-05-07T05:57:43;14.90;99.90
16289;DHT22;26089;43.538;5.250;2023-05-07T06:00:10;15.00;99.90
16289;DHT22;26089;43.538;5.250;2023-05-07T06:02:37;15.00;99.90
16289;DHT22;26089;43.538;5.250;2023-05-07T06:05:05;15.00;99.90
16289;DHT22;26089;43.538;5.250;2023-05-07T06:07:32;15.00;99.90
16289;DHT22;26089;43.538;5.250;2023-05-07T06:10:00;14.90;99.90
16289;DHT22;26089;43.538;5.250;2023-05-07T06:12:27;14.90;99.90
16289;DHT22;26089;43.538;5.250;2023-05-07T06:14:55;14.80;99.90
16289;DHT22;26089;43.538;5.250;2023-05-07T06:17:22;14.90;99.90
16289;DHT22;26089;43.538;5.250;2023-05-07T06:19:49;14.90;99.90
16289;DHT22;26089;43.538;5.250;2023-05-07T06:22:16;14.90;99.90
16289;DHT22;26089;43.538;5.250;2023-05-07T06:24:43;15.00;99.90
16289;DHT22;26089;43.538;5.250;2023-05-07T06:27:10;15.10;99.90
16289;DHT22;26089;43.538;5.250;2023-05-07T06:29:37;15.30;99.90
16289;DHT22;26089;43.538;5.250;2023-05-07T06:32:09;15.80;99.90
16289;DHT22;26089;43.538;5.250;2023-05-07T06:34:36;16.40;99.90
16289;DHT22;26089;43.538;5.250;2023-05-07T06:37:04;16.70;99.90
16289;DHT22;26089;43.538;5.250;2023-05-07T06:39:31;16.90;99.90
16289;DHT22;26089;43.538;5.250;2023-05-07T06:41:59;16.90;99.90
16289;DHT22;26089;43.538;5.250;2023-05-07T06:44:26;17.30;99.90
16289;DHT22;26089;43.538;5.250;2023-05-07T06:46:53;18.10;99.90
16289;DHT22;26089;43.538;5.250;2023-05-07T06:49:21;19.00;99.90
16289;DHT22;26089;43.538;5.250;2023-05-07T06:51:48;18.90;99.90
16289;DHT22;26089;43.538;5.250;2023-05-07T06:54:16;19.00;99.90
16289;DHT22;26089;43.538;5.250;2023-05-07T06:56:43;20.00;99.90
16289;DHT22;26089;43.538;5.250;2023-05-07T06:59:10;20.80;99.90
16289;DHT22;26089;43.538;5.250;2023-05-07T07:01:37;21.50;99.90
16289;DHT22;26089;43.538;5.250;2023-05-07T07:04:04;22.20;99.90
16289;DHT22;26089;43.538;5.250;2023-05-07T07:06:32;22.10;99.90
16289;DHT22;26089;43.538;5.250;2023-05-07T07:09:00;21.20;99.90
16289;DHT22;26089;43.538;5.250;2023-05-07T07:11:27;20.30;99.90
16289;DHT22;26089;43.538;5.250;2023-05-07T07:13:54;19.70;99.90
16289;DHT22;26089;43.538;5.250;2023-05-07T07:16:21;19.30;99.90
16289;DHT22;26089;43.538;5.250;2023-05-07T07:18:48;19.30;99.90
16289;DHT22;26089;43.538;5.250;2023-05-07T07:21:15;19.60;99.90
16289;DHT22;26089;43.538;5.250;2023-05-07T07:23:43;20.40;99.90
16289;DHT22;26089;43.538;5.250;2023-05-07T07:26:10;21.50;99.90
16289;DHT22;26089;43.538;5.250;2023-05-07T07:28:42;22.40;99.90
16289;DHT22;26089;43.538;5.250;2023-05-07T07:31:09;23.30;99.90
16289;DHT22;26089;43.538;5.250;2023-05-07T07:33:36;23.50;99.90
16289;DHT22;26089;43.538;5.250;2023-05-07T07:36:04;23.70;99.90
16289;DHT22;26089;43.538;5.250;2023-05-07T07:38:32;23.70;99.90
16289;DHT22;26089;43.538;5.250;2023-05-07T07:41:00;24.00;99.90
16289;DHT22;26089;43.538;5.250;2023-05-07T07:43:27;24.50;99.90
16289;DHT22;26089;43.538;5.250;2023-05-07T07:45:54;24.70;99.90
16289;DHT22;26089;43.538;5.250;2023-05-07T07:48:21;24.60;99.90
16289;DHT22;26089;43.538;5.250;2023-05-07T07:50:49;24.20;99.90
16289;DHT22;26089;43.538;5.250;2023-05-07T07:53:16;24.00;99.90
16289;DHT22;26089;43.538;5.250;2023-05-07T07:55:43;23.90;99.90
16289;DHT22;26089;43.538;5.250;2023-05-07T07:58:12;23.90;99.90
16289;DHT22;26089;43.538;5.250;2023-05-07T08:00:39;23.80;99.90
16289;DHT22;26089;43.538;5.250;2023-05-07T08:03:08;24.00;99.90
16289;DHT22;26089;43.538;5.250;2023-05-07T08:05:35;24.10;99.90
16289;DHT22;26089;43.538;5.250;2023-05-07T08:08:04;24.50;99.90
16289;DHT22;26089;43.538;5.250;2023-05-07T08:10:31;24.80;99.90
16289;DHT22;26089;43.538;5.250;2023-05-07T08:13:00;24.90;99.90
16289;DHT22;26089;43.538;5.250;2023-05-07T08:15:30;25.10;99.90
16289;DHT22;26089;43.538;5.250;2023-05-07T08:17:58;25.30;99.90
16289;DHT22;26089;43.538;5.250;2023-05-07T08:20:25;25.40;99.90
16289;DHT22;26089;43.538;5.250;2023-05-07T08:22:52;25.50;99.90
16289;DHT22;26089;43.538;5.250;2023-05-07T08:25:19;25.60;99.90
16289;DHT22;26089;43.538;5.250;2023-05-07T08:27:46;25.80;99.90
16289;DHT22;26089;43.538;5.250;2023-05-07T08:30:14;26.10;99.90
16289;DHT22;26089;43.538;5.250;2023-05-07T08:32:42;26.00;99.90
16289;DHT22;26089;43.538;5.250;2023-05-07T08:35:09;26.20;99.90
16289;DHT22;26089;43.538;5.250;2023-05-07T08:37:36;26.50;99.90
16289;DHT22;26089;43.538;5.250;2023-05-07T08:40:04;26.70;99.90
16289;DHT22;26089;43.538;5.250;2023-05-07T08:42:35;26.50;99.90
16289;DHT22;26089;43.538;5.250;2023-05-07T08:45:04;26.70;99.90
16289;DHT22;26089;43.538;5.250;2023-05-07T08:47:42;27.00;99.90
16289;DHT22;26089;43.538;5.250;2023-05-07T08:50:10;27.20;99.90
16289;DHT22;26089;43.538;5.250;2023-05-07T08:52:39;26.80;99.90
16289;DHT22;26089;43.538;5.250;2023-05-07T08:55:07;26.60;99.90
16289;DHT22;26089;43.538;5.250;2023-05-07T08:57:34;26.80;99.90
16289;DHT22;26089;43.538;5.250;2023-05-07T09:00:01;26.60;99.90
16289;DHT22;26089;43.538;5.250;2023-05-07T09:02:29;26.60;99.90
16289;DHT22;26089;43.538;5.250;2023-05-07T09:04:57;27.00;99.90
16289;DHT22;26089;43.538;5.250;2023-05-07T09:07:25;27.00;99.90
16289;DHT22;26089;43.538;5.250;2023-05-07T09:09:52;27.40;99.90
16289;DHT22;26089;43.538;5.250;2023-05-07T09:12:20;28.10;99.90
16289;DHT22;26089;43.538;5.250;2023-05-07T09:14:48;28.10;99.90
16289;DHT22;26089;43.538;5.250;2023-05-07T09:17:15;28.20;99.90
16289;DHT22;26089;43.538;5.250;2023-05-07T09:19:44;27.60;99.90
16289;DHT22;26089;43.538;5.250;2023-05-07T09:22:12;26.80;99.90
16289;DHT22;26089;43.538;5.250;2023-05-07T09:24:40;26.80;99.90
16289;DHT22;26089;43.538;5.250;2023-05-07T09:27:07;26.90;99.90
16289;DHT22;26089;43.538;5.250;2023-05-07T09:29:36;27.00;99.90
16289;DHT22;26089;43.538;5.250;2023-05-07T09:32:03;27.00;99.90
16289;DHT22;26089;43.538;5.250;2023-05-07T09:34:31;26.40;99.90
16289;DHT22;26089;43.538;5.250;2023-05-07T09:36:59;25.80;99.90
16289;DHT22;26089;43.538;5.250;2023-05-07T09:39:38;26.00;99.90
16289;DHT22;26089;43.538;5.250;2023-05-07T09:42:06;26.00;99.90
16289;DHT22;26089;43.538;5.250;2023-05-07T09:44:34;25.40;99.90
16289;DHT22;26089;43.538;5.250;2023-05-07T09:47:01;25.10;99.90
16289;DHT22;26089;43.538;5.250;2023-05-07T09:49:34;24.80;99.90
16289;DHT22;26089;43.538;5.250;2023-05-07T09:52:03;24.60;99.90
16289;DHT22;26089;43.538;5.250;2023-05-07T09:54:33;25.00;99.90
16289;DHT22;26089;43.538;5.250;2023-05-07T09:57:01;25.80;99.90
16289;DHT22;26089;43.538;5.250;2023-05-07T09:59:30;26.30;99.90
16289;DHT22;26089;43.538;5.250;2023-05-07T10:01:58;26.70;99.90
16289;DHT22;26089;43.538;5.250;2023-05-07T10:04:26;27.30;99.90
16289;DHT22;26089;43.538;5.250;2023-05-07T10:06:54;27.10;99.90
16289;DHT22;26089;43.538;5.250;2023-05-07T10:09:21;27.50;99.90
16289;DHT22;26089;43.538;5.250;2023-05-07T10:11:50;28.00;99.90
16289;DHT22;26089;43.538;5.250;2023-05-07T10:14:17;28.10;99.90
16289;DHT22;26089;43.538;5.250;2023-05-07T10:16:47;28.30;99.90
16289;DHT22;26089;43.538;5.250;2023-05-07T10:19:14;27.90;99.90
16289;DHT22;26089;43.538;5.250;2023-05-07T10:21:48;27.40;99.90
16289;DHT22;26089;43.538;5.250;2023-05-07T10:24:20;27.40;99.90
16289;DHT22;26089;43.538;5.250;2023-05-07T10:26:51;27.30;99.90
16289;DHT22;26089;43.538;5.250;2023-05-07T10:29:31;27.40;99.90
16289;DHT22;26089;43.538;5.250;2023-05-07T10:32:13;27.70;99.90
16289;DHT22;26089;43.538;5.250;2023-05-07T10:34:48;28.20;99.90
16289;DHT22;26089;43.538;5.250;2023-05-07T10:37:18;28.10;99.90
16289;DHT22;26089;43.538;5.250;2023-05-07T10:39:45;28.40;99.90
16289;DHT22;26089;43.538;5.250;2023-05-07T10:42:14;28.90;99.90
16289;DHT22;26089;43.538;5.250;2023-05-07T10:44:41;28.80;99.90
16289;DHT22;26089;43.538;5.250;2023-05-07T10:47:09;29.10;99.90
16289;DHT22;26089;43.538;5.250;2023-05-07T10:49:38;28.20;99.90
16289;DHT22;26089;43.538;5.250;2023-05-07T10:52:24;27.00;99.90
16289;DHT22;26089;43.538;5.250;2023-05-07T10:57:53;27.70;99.90
16289;DHT22;26089;43.538;5.250;2023-05-07T11:00:43;28.50;99.90
16289;DHT22;26089;43.538;5.250;2023-05-07T11:03:10;28.20;99.90
16289;DHT22;26089;43.538;5.250;2023-05-07T11:05:38;28.50;99.90
16289;DHT22;26089;43.538;5.250;2023-05-07T11:08:05;28.80;99.90
16289;DHT22;26089;43.538;5.250;2023-05-07T11:10:49;28.50;99.90
16289;DHT22;26089;43.538;5.250;2023-05-07T11:13:18;28.70;99.90
16289;DHT22;26089;43.538;5.250;2023-05-07T11:15:46;28.50;99.90
16289;DHT22;26089;43.538;5.250;2023-05-07T11:18:14;29.00;99.90
16289;DHT22;26089;43.538;5.250;2023-05-07T11:20:52;29.00;99.90
16289;DHT22;26089;43.538;5.250;2023-05-07T11:23:56;29.30;99.90
16289;DHT22;26089;43.538;5.250;2023-05-07T11:26:27;28.10;99.90
16289;DHT22;26089;43.538;5.250;2023-05-07T11:28:56;28.80;99.90
16289;DHT22;26089;43.538;5.250;2023-05-07T11:31:26;28.90;99.90
16289;DHT22;26089;43.538;5.250;2023-05-07T11:33:54;29.30;99.90
16289;DHT22;26089;43.538;5.250;2023-05-07T11:36:23;29.50;99.90
16289;DHT22;26089;43.538;5.250;2023-05-07T11:38:50;29.80;99.90
16289;DHT22;26089;43.538;5.250;2023-05-07T11:41:17;29.70;99.90
16289;DHT22;26089;43.538;5.250;2023-05-07T11:43:58;30.20;99.90
16289;DHT22;26089;43.538;5.250;2023-05-07T11:46:26;30.40;99.90
16289;DHT22;26089;43.538;5.250;2023-05-07T11:48:53;30.40;99.90
16289;DHT22;26089;43.538;5.250;2023-05-07T11:51:21;30.00;99.90
16289;DHT22;26089;43.538;5.250;2023-05-07T11:53:48;28.10;99.90
16289;DHT22;26089;43.538;5.250;2023-05-07T11:56:17;27.40;99.90
16289;DHT22;26089;43.538;5.250;2023-05-07T11:58:46;27.50;99.90
16289;DHT22;26089;43.538;5.250;2023-05-07T12:01:14;28.10;99.90
16289;DHT22;26089;43.538;5.250;2023-05-07T12:03:45;28.70;99.90
16289;DHT22;26089;43.538;5.250;2023-05-07T12:06:13;28.30;99.90
16289;DHT22;26089;43.538;5.250;2023-05-07T12:08:41;28.10;99.90
16289;DHT22;26089;43.538;5.250;2023-05-07T12:11:09;28.80;99.90
16289;DHT22;26089;43.538;5.250;2023-05-07T12:13:37;29.00;99.90
16289;DHT22;26089;43.538;5.250;2023-05-07T12:16:06;29.00;99.90
16289;DHT22;26089;43.538;5.250;2023-05-07T12:18:36;28.90;99.90
16289;DHT22;26089;43.538;5.250;2023-05-07T12:21:05;29.00;99.90
16289;DHT22;26089;43.538;5.250;2023-05-07T12:23:33;29.40;99.90
16289;DHT22;26089;43.538;5.250;2023-05-07T12:26:00;29.60;99.90
16289;DHT22;26089;43.538;5.250;2023-05-07T12:28:27;30.40;99.90
16289;DHT22;26089;43.538;5.250;2023-05-07T12:30:56;30.60;99.90
16289;DHT22;26089;43.538;5.250;2023-05-07T12:33:24;30.20;99.90
16289;DHT22;26089;43.538;5.250;2023-05-07T12:35:54;30.50;99.90
16289;DHT22;26089;43.538;5.250;2023-05-07T12:38:21;30.30;99.90
16289;DHT22;26089;43.538;5.250;2023-05-07T12:40:49;30.20;99.90
16289;DHT22;26089;43.538;5.250;2023-05-07T12:43:18;29.70;99.90
16289;DHT22;26089;43.538;5.250;2023-05-07T12:45:46;28.10;99.90
16289;DHT22;26089;43.538;5.250;2023-05-07T12:48:14;27.50;99.90
16289;DHT22;26089;43.538;5.250;2023-05-07T12:50:42;27.40;99.90
16289;DHT22;26089;43.538;5.250;2023-05-07T12:53:12;28.50;99.90
16289;DHT22;26089;43.538;5.250;2023-05-07T12:55:42;29.30;99.90
16289;DHT22;26089;43.538;5.250;2023-05-07T12:58:15;29.30;99.90
16289;DHT22;26089;43.538;5.250;2023-05-07T13:00:43;29.70;99.90
16289;DHT22;26089;43.538;5.250;2023-05-07T13:03:11;29.60;99.90
16289;DHT22;26089;43.538;5.250;2023-05-07T13:05:38;30.20;99.90
16289;DHT22;26089;43.538;5.250;2023-05-07T13:08:05;30.40;99.90
16289;DHT22;26089;43.538;5.250;2023-05-07T13:10:36;30.60;99.90
16289;DHT22;26089;43.538;5.250;2023-05-07T13:13:03;30.30;99.90
16289;DHT22;26089;43.538;5.250;2023-05-07T13:15:30;30.50;99.90
16289;DHT22;26089;43.538;5.250;2023-05-07T13:17:57;30.20;99.90
16289;DHT22;26089;43.538;5.250;2023-05-07T13:20:24;30.00;99.90
16289;DHT22;26089;43.538;5.250;2023-05-07T13:22:51;30.00;99.90
16289;DHT22;26089;43.538;5.250;2023-05-07T13:25:18;30.20;99.90
16289;DHT22;26089;43.538;5.250;2023-05-07T13:27:46;30.00;99.90
16289;DHT22;26089;43.538;5.250;2023-05-07T13:30:14;30.30;99.90
16289;DHT22;26089;43.538;5.250;2023-05-07T13:32:40;30.20;99.90
16289;DHT22;26089;43.538;5.250;2023-05-07T13:35:08;30.00;99.90
16289;DHT22;26089;43.538;5.250;2023-05-07T13:37:34;29.90;99.90
16289;DHT22;26089;43.538;5.250;2023-05-07T13:40:02;30.00;99.90
16289;DHT22;26089;43.538;5.250;2023-05-07T13:42:30;30.30;99.90
16289;DHT22;26089;43.538;5.250;2023-05-07T13:44:58;30.30;99.90
16289;DHT22;26089;43.538;5.250;2023-05-07T13:47:26;29.10;99.90
16289;DHT22;26089;43.538;5.250;2023-05-07T13:49:53;28.00;99.90
16289;DHT22;26089;43.538;5.250;2023-05-07T13:52:20;28.20;99.90
16289;DHT22;26089;43.538;5.250;2023-05-07T13:54:47;28.20;99.90
16289;DHT22;26089;43.538;5.250;2023-05-07T13:57:14;28.10;99.90
16289;DHT22;26089;43.538;5.250;2023-05-07T13:59:41;27.90;99.90
16289;DHT22;26089;43.538;5.250;2023-05-07T14:02:09;27.90;99.90
16289;DHT22;26089;43.538;5.250;2023-05-07T14:04:37;28.00;99.90
16289;DHT22;26089;43.538;5.250;2023-05-07T14:07:04;28.10;99.90
16289;DHT22;26089;43.538;5.250;2023-05-07T14:09:31;28.70;99.90
16289;DHT22;26089;43.538;5.250;2023-05-07T14:11:58;28.80;99.90
16289;DHT22;26089;43.538;5.250;2023-05-07T14:14:27;29.20;99.90
16289;DHT22;26089;43.538;5.250;2023-05-07T14:16:54;29.50;99.90
16289;DHT22;26089;43.538;5.250;2023-05-07T14:19:22;29.30;99.90
16289;DHT22;26089;43.538;5.250;2023-05-07T14:21:49;28.90;99.90
16289;DHT22;26089;43.538;5.250;2023-05-07T14:24:16;29.10;99.90
16289;DHT22;26089;43.538;5.250;2023-05-07T14:26:43;29.00;99.90
16289;DHT22;26089;43.538;5.250;2023-05-07T14:29:10;28.80;99.90
16289;DHT22;26089;43.538;5.250;2023-05-07T14:31:37;28.80;99.90
16289;DHT22;26089;43.538;5.250;2023-05-07T14:34:05;28.70;99.90
16289;DHT22;26089;43.538;5.250;2023-05-07T14:36:33;28.40;99.90
16289;DHT22;26089;43.538;5.250;2023-05-07T14:39:00;28.40;99.90
16289;DHT22;26089;43.538;5.250;2023-05-07T14:41:28;28.60;99.90
16289;DHT22;26089;43.538;5.250;2023-05-07T14:43:54;28.50;99.90
16289;DHT22;26089;43.538;5.250;2023-05-07T14:46:21;28.60;99.90
16289;DHT22;26089;43.538;5.250;2023-05-07T14:48:49;27.90;99.90
16289;DHT22;26089;43.538;5.250;2023-05-07T14:51:16;27.60;99.90
16289;DHT22;26089;43.538;5.250;2023-05-07T14:53:44;27.30;99.90
16289;DHT22;26089;43.538;5.250;2023-05-07T14:56:11;27.30;99.90
16289;DHT22;26089;43.538;5.250;2023-05-07T14:58:39;27.40;99.90
16289;DHT22;26089;43.538;5.250;2023-05-07T15:01:06;27.50;99.90
16289;DHT22;26089;43.538;5.250;2023-05-07T15:03:33;27.10;99.90
16289;DHT22;26089;43.538;5.250;2023-05-07T15:06:01;27.10;99.90
16289;DHT22;26089;43.538;5.250;2023-05-07T15:08:28;26.70;99.90
16289;DHT22;26089;43.538;5.250;2023-05-07T15:10:57;26.90;99.90
16289;DHT22;26089;43.538;5.250;2023-05-07T15:13:24;26.70;99.90
16289;DHT22;26089;43.538;5.250;2023-05-07T15:15:51;26.70;99.90
16289;DHT22;26089;43.538;5.250;2023-05-07T15:18:18;26.80;99.90
16289;DHT22;26089;43.538;5.250;2023-05-07T15:20:45;26.20;99.90
16289;DHT22;26089;43.538;5.250;2023-05-07T15:23:12;26.20;99.90
16289;DHT22;26089;43.538;5.250;2023-05-07T15:25:39;26.10;99.90
16289;DHT22;26089;43.538;5.250;2023-05-07T15:28:08;26.00;99.90
16289;DHT22;26089;43.538;5.250;2023-05-07T15:30:35;26.10;99.90
16289;DHT22;26089;43.538;5.250;2023-05-07T15:33:02;26.20;99.90
16289;DHT22;26089;43.538;5.250;2023-05-07T15:35:29;26.40;99.90
16289;DHT22;26089;43.538;5.250;2023-05-07T15:37:56;26.40;99.90